createdAt,value
2022-10-22T00:00:28.780Z,14.27
2022-10-22T00:01:15.700Z,13.57
2022-10-22T00:02:02.711Z,17.70
2022-10-22T00:02:49.684Z,13.20
2022-10-22T00:03:36.750Z,15.50
2022-10-22T00:04:24.178Z,14.02
2022-10-22T00:05:11.860Z,15.70
2022-10-22T00:05:58.932Z,15.10
2022-10-22T00:06:45.849Z,13.62
2022-10-22T00:07:33.391Z,13.02
2022-10-22T00:08:20.592Z,16.52
2022-10-22T00:09:07.591Z,12.57
2022-10-22T00:09:54.480Z,14.18
2022-10-22T00:10:41.864Z,13.65
2022-10-22T00:11:29.671Z,14.85
2022-10-22T00:12:16.883Z,15.10
2022-10-22T00:13:03.993Z,13.23
2022-10-22T00:13:51.142Z,13.20
2022-10-22T00:14:38.232Z,14.87
2022-10-22T00:15:25.293Z,16.70
2022-10-22T00:16:12.521Z,16.30
2022-10-22T00:17:01.202Z,13.20
2022-10-22T00:17:49.821Z,14.02
2022-10-22T00:18:37.281Z,14.60
2022-10-22T00:19:24.394Z,14.75
2022-10-22T00:20:11.783Z,14.43
2022-10-22T00:20:58.771Z,13.62
2022-10-22T00:21:45.683Z,13.20
2022-10-22T00:22:32.600Z,13.15
2022-10-22T00:23:19.510Z,14.68
2022-10-22T00:24:06.629Z,13.60
2022-10-22T00:24:53.541Z,17.62
2022-10-22T00:25:40.634Z,15.50
2022-10-22T00:26:27.830Z,16.37
2022-10-22T00:27:14.959Z,15.52
2022-10-22T00:28:02.842Z,15.02
2022-10-22T00:28:49.798Z,13.43
2022-10-22T00:29:36.960Z,14.63
2022-10-22T00:30:24.200Z,14.02
2022-10-22T00:31:11.184Z,16.98
2022-10-22T00:31:58.132Z,16.67
2022-10-22T00:32:45.631Z,13.73
2022-10-22T00:33:32.720Z,13.90
2022-10-22T00:34:21.571Z,22.70
2022-10-22T00:35:08.721Z,15.88
2022-10-22T00:35:55.880Z,17.67
2022-10-22T00:36:42.931Z,12.70
2022-10-22T00:37:30.730Z,18.73
2022-10-22T00:38:17.691Z,16.70
2022-10-22T00:39:04.692Z,14.13
2022-10-22T00:39:51.641Z,14.75
2022-10-22T00:40:38.582Z,15.80
2022-10-22T00:41:25.610Z,14.82
2022-10-22T00:42:19.750Z,15.48
2022-10-22T00:43:06.649Z,15.73
2022-10-22T00:43:55.670Z,15.30
2022-10-22T00:45:07.689Z,14.55
2022-10-22T00:45:54.570Z,16.05
2022-10-22T00:46:41.752Z,15.25
2022-10-22T00:47:39.881Z,13.48
2022-10-22T00:48:29.573Z,13.18
2022-10-22T00:49:16.681Z,15.88
2022-10-22T00:50:05.923Z,13.82
2022-10-22T00:50:55.881Z,16.45
2022-10-22T00:51:42.810Z,14.98
2022-10-22T00:52:29.910Z,14.07
2022-10-22T00:53:20.540Z,19.60
2022-10-22T00:54:54.360Z,17.35
2022-10-22T00:55:42.863Z,15.52
2022-10-22T00:56:29.842Z,13.95
2022-10-22T00:57:18.250Z,16.87
2022-10-22T00:58:05.260Z,15.45
2022-10-22T00:58:54.643Z,15.18
2022-10-22T00:59:41.741Z,19.08
2022-10-22T01:00:29.044Z,16.42
2022-10-22T01:01:23.139Z,17.60
2022-10-22T01:02:10.264Z,19.87
2022-10-22T01:02:57.951Z,15.95
2022-10-22T01:03:44.880Z,17.00
2022-10-22T01:04:32.559Z,15.55
2022-10-22T01:05:19.672Z,16.00
2022-10-22T01:06:06.960Z,15.50
2022-10-22T01:06:53.932Z,17.80
2022-10-22T01:07:49.422Z,15.95
2022-10-22T01:08:51.339Z,18.35
2022-10-22T01:09:48.600Z,14.63
2022-10-22T01:10:44.930Z,17.08
2022-10-22T01:11:56.651Z,14.57
2022-10-22T01:12:46.780Z,15.93
2022-10-22T01:13:45.315Z,17.15
2022-10-22T01:14:35.670Z,16.08
2022-10-22T01:15:31.909Z,15.38
2022-10-22T01:16:55.821Z,15.10
2022-10-22T01:18:30.409Z,16.55
2022-10-22T01:19:54.711Z,16.00
2022-10-22T01:20:58.790Z,18.15
2022-10-22T01:21:53.789Z,20.65
2022-10-22T01:22:44.131Z,15.98
2022-10-22T01:23:50.981Z,19.87
2022-10-22T01:24:53.040Z,15.73
2022-10-22T01:25:51.301Z,14.68
2022-10-22T01:27:15.499Z,18.33
2022-10-22T01:28:19.425Z,16.75
2022-10-22T01:29:19.270Z,15.55
2022-10-22T01:30:08.098Z,15.75
2022-10-22T01:30:56.891Z,17.00
2022-10-22T01:31:46.931Z,18.20
2022-10-22T01:33:32.410Z,16.25
2022-10-22T01:34:19.580Z,18.30
2022-10-22T01:35:09.190Z,16.90
2022-10-22T01:35:56.810Z,17.83
2022-10-22T01:36:44.710Z,15.55
2022-10-22T01:37:34.915Z,17.90
2022-10-22T01:38:24.842Z,17.65
2022-10-22T01:39:13.141Z,23.58
2022-10-22T01:40:01.100Z,17.05
2022-10-22T01:40:48.761Z,19.30
2022-10-22T01:41:35.653Z,19.50
2022-10-22T01:42:22.498Z,16.55
2022-10-22T01:43:11.092Z,16.50
2022-10-22T01:43:57.921Z,15.65
2022-10-22T01:44:44.920Z,15.60
2022-10-22T01:45:37.261Z,16.77
2022-10-22T01:46:26.070Z,16.33
2022-10-22T01:48:00.551Z,16.83
2022-10-22T01:49:12.159Z,16.65
2022-10-22T01:50:07.491Z,15.23
2022-10-22T01:51:16.902Z,14.43
2022-10-22T01:52:36.780Z,16.83
2022-10-22T01:53:23.680Z,14.05
2022-10-22T01:54:33.833Z,21.80
2022-10-22T01:56:03.510Z,15.57
2022-10-22T01:57:09.729Z,15.63
2022-10-22T01:58:03.941Z,15.48
2022-10-22T01:59:15.310Z,16.95
2022-10-22T02:00:04.644Z,14.23
2022-10-22T02:01:01.201Z,14.65
2022-10-22T02:02:04.700Z,14.73
2022-10-22T02:03:11.412Z,16.00
2022-10-22T02:04:10.561Z,14.82
2022-10-22T02:05:08.459Z,15.57
2022-10-22T02:05:59.115Z,16.58
2022-10-22T02:06:47.301Z,17.02
2022-10-22T02:07:49.391Z,14.63
2022-10-22T02:08:37.010Z,17.40
2022-10-22T02:09:25.760Z,18.98
2022-10-22T02:10:13.377Z,15.82
2022-10-22T02:11:00.850Z,18.02
2022-10-22T02:11:48.291Z,15.23
2022-10-22T02:12:35.791Z,16.42
2022-10-22T02:13:29.409Z,20.60
2022-10-22T02:14:18.283Z,16.27
2022-10-22T02:15:05.720Z,17.87
2022-10-22T02:15:53.520Z,14.70
2022-10-22T02:16:43.499Z,14.93
2022-10-22T02:17:32.570Z,19.52
2022-10-22T02:18:23.729Z,15.43
2022-10-22T02:19:23.480Z,16.75
2022-10-22T02:20:21.170Z,16.08
2022-10-22T02:22:00.322Z,15.35
2022-10-22T02:22:47.750Z,16.08
2022-10-22T02:23:34.861Z,17.98
2022-10-22T02:24:22.210Z,16.70
2022-10-22T02:25:09.861Z,14.95
2022-10-22T02:26:07.800Z,15.50
2022-10-22T02:27:26.932Z,16.20
2022-10-22T02:28:20.320Z,15.52
2022-10-22T02:29:19.581Z,18.23
2022-10-22T02:31:15.802Z,16.37
2022-10-22T02:32:04.031Z,21.58
2022-10-22T02:33:09.272Z,16.45
2022-10-22T02:33:58.341Z,18.85
2022-10-22T02:34:45.451Z,20.73
2022-10-22T02:35:32.702Z,16.98
2022-10-22T02:36:20.231Z,17.27
2022-10-22T02:37:07.801Z,16.52
2022-10-22T02:37:55.850Z,17.92
2022-10-22T02:38:43.430Z,16.17
2022-10-22T02:39:32.059Z,17.35
2022-10-22T02:40:19.013Z,17.80
2022-10-22T02:41:06.094Z,15.80
2022-10-22T02:41:53.170Z,17.23
2022-10-22T02:42:41.539Z,16.65
2022-10-22T02:43:29.890Z,18.98
2022-10-22T02:44:21.261Z,17.20
2022-10-22T02:45:08.781Z,14.98
2022-10-22T02:45:55.882Z,17.25
2022-10-22T02:46:43.493Z,14.93
2022-10-22T02:47:30.491Z,15.25
2022-10-22T02:48:17.733Z,15.75
2022-10-22T02:49:05.011Z,15.43
2022-10-22T02:49:52.110Z,14.45
2022-10-22T02:50:39.099Z,17.42
2022-10-22T02:51:26.010Z,17.08
2022-10-22T02:52:12.902Z,18.30
2022-10-22T02:52:59.880Z,16.08
2022-10-22T02:53:46.751Z,15.57
2022-10-22T02:54:33.606Z,17.67
2022-10-22T02:55:20.489Z,17.10
2022-10-22T02:56:07.740Z,17.58
2022-10-22T02:56:54.621Z,15.43
2022-10-22T02:57:42.319Z,22.23
2022-10-22T02:58:29.520Z,16.25
2022-10-22T02:59:16.412Z,19.98
2022-10-22T03:00:05.701Z,18.58
2022-10-22T03:00:52.762Z,15.98
2022-10-22T03:01:39.720Z,18.87
2022-10-22T03:02:26.710Z,17.62
2022-10-22T03:03:13.751Z,16.30
2022-10-22T03:04:00.751Z,19.45
2022-10-22T03:04:48.470Z,16.10
2022-10-22T03:05:35.422Z,23.77
2022-10-22T03:06:22.422Z,17.15
2022-10-22T03:07:09.491Z,17.33
2022-10-22T03:07:56.410Z,19.35
2022-10-22T03:08:43.707Z,17.02
2022-10-22T03:09:30.900Z,15.82
2022-10-22T03:10:17.800Z,18.77
2022-10-22T03:11:04.722Z,17.60
2022-10-22T03:11:51.804Z,17.30
2022-10-22T03:12:38.790Z,18.23
2022-10-22T03:13:25.793Z,19.98
2022-10-22T03:14:12.909Z,17.58
2022-10-22T03:14:59.941Z,18.17
2022-10-22T03:15:49.742Z,19.27
2022-10-22T03:16:36.730Z,21.02
2022-10-22T03:17:23.621Z,17.75
2022-10-22T03:18:10.652Z,16.35
2022-10-22T03:18:57.520Z,18.00
2022-10-22T03:19:44.419Z,18.27
2022-10-22T03:20:31.499Z,18.42
2022-10-22T03:21:35.030Z,28.83
2022-10-22T03:22:25.500Z,18.70
2022-10-22T03:23:14.762Z,21.25
2022-10-22T03:24:08.171Z,16.95
2022-10-22T03:24:59.850Z,15.20
2022-10-22T03:25:48.659Z,17.50
2022-10-22T03:26:36.340Z,18.27
2022-10-22T03:27:23.612Z,18.00
2022-10-22T03:28:11.432Z,19.55
2022-10-22T03:28:58.500Z,18.52
2022-10-22T03:29:47.153Z,17.42
2022-10-22T03:30:34.030Z,19.87
2022-10-22T03:31:21.000Z,21.48
2022-10-22T03:32:08.040Z,16.90
2022-10-22T03:32:54.912Z,17.60
2022-10-22T03:33:41.833Z,17.10
2022-10-22T03:34:28.879Z,18.10
2022-10-22T03:35:15.820Z,20.12
2022-10-22T03:36:02.791Z,18.45
2022-10-22T03:36:50.172Z,19.02
2022-10-22T03:37:37.674Z,17.75
2022-10-22T03:38:24.991Z,18.23
2022-10-22T03:39:13.870Z,19.00
2022-10-22T03:40:00.909Z,17.58
2022-10-22T03:40:47.971Z,16.83
2022-10-22T03:41:35.620Z,19.20
2022-10-22T03:42:22.691Z,21.85
2022-10-22T03:43:09.796Z,21.27
2022-10-22T03:43:57.802Z,18.42
2022-10-22T03:44:44.650Z,18.55
2022-10-22T03:45:31.705Z,19.20
2022-10-22T03:46:19.271Z,23.15
2022-10-22T03:47:06.821Z,18.27
2022-10-22T03:47:53.871Z,18.50
2022-10-22T03:48:40.721Z,20.25
2022-10-22T03:49:27.620Z,17.75
2022-10-22T03:50:14.590Z,17.98
2022-10-22T03:51:01.531Z,19.02
2022-10-22T03:51:48.540Z,17.27
2022-10-22T03:52:37.539Z,17.52
2022-10-22T03:53:24.431Z,18.98
2022-10-22T03:54:11.360Z,18.45
2022-10-22T03:54:58.300Z,19.30
2022-10-22T03:55:45.241Z,25.73
2022-10-22T03:56:32.802Z,18.37
2022-10-22T03:57:19.690Z,18.42
2022-10-22T03:58:06.771Z,21.58
2022-10-22T03:58:56.610Z,21.52
2022-10-22T03:59:44.919Z,16.80
2022-10-22T04:00:31.942Z,19.52
2022-10-22T04:01:18.871Z,16.95
2022-10-22T04:02:06.409Z,17.65
2022-10-22T04:02:53.321Z,18.30
2022-10-22T04:03:40.821Z,17.77
2022-10-22T04:04:27.711Z,17.73
2022-10-22T04:06:11.181Z,18.90
2022-10-22T04:06:58.340Z,18.48
2022-10-22T04:07:45.323Z,18.95
2022-10-22T04:08:32.584Z,21.50
2022-10-22T04:09:19.510Z,22.15
2022-10-22T04:10:06.962Z,16.87
2022-10-22T04:10:53.943Z,16.83
2022-10-22T04:11:40.930Z,19.77
2022-10-22T04:12:27.780Z,17.50
2022-10-22T04:13:14.680Z,20.23
2022-10-22T04:14:01.580Z,19.02
2022-10-22T04:14:48.530Z,21.12
2022-10-22T04:15:35.715Z,17.20
2022-10-22T04:16:25.138Z,16.67
2022-10-22T04:17:14.469Z,15.82
2022-10-22T04:18:01.341Z,18.73
2022-10-22T04:18:58.073Z,19.80
2022-10-22T04:19:59.102Z,16.67
2022-10-22T04:20:48.338Z,17.45
2022-10-22T04:21:39.689Z,17.77
2022-10-22T04:22:32.726Z,19.83
2022-10-22T04:23:23.179Z,17.27
2022-10-22T04:24:14.087Z,19.55
2022-10-22T04:25:07.244Z,21.05
2022-10-22T04:26:05.464Z,21.17
2022-10-22T04:26:58.830Z,19.50
2022-10-22T04:27:49.059Z,17.55
2022-10-22T04:28:38.950Z,18.73
2022-10-22T04:29:30.021Z,18.15
2022-10-22T04:30:18.412Z,17.48
2022-10-22T04:31:18.669Z,19.75
2022-10-22T04:32:07.885Z,19.12
2022-10-22T04:32:59.962Z,21.20
2022-10-22T04:33:51.151Z,16.70
2022-10-22T04:34:40.023Z,18.48
2022-10-22T04:35:30.902Z,18.58
2022-10-22T04:36:21.524Z,18.15
2022-10-22T04:37:12.001Z,17.33
2022-10-22T04:38:03.089Z,18.15
2022-10-22T04:38:58.499Z,20.05
2022-10-22T04:39:50.900Z,18.00
2022-10-22T04:40:41.666Z,22.90
2022-10-22T04:42:20.989Z,18.05
2022-10-22T04:43:15.200Z,15.68
2022-10-22T04:44:05.450Z,19.12
2022-10-22T04:44:56.900Z,17.05
2022-10-22T04:45:47.266Z,19.33
2022-10-22T04:46:41.510Z,22.15
2022-10-22T04:47:30.763Z,18.98
2022-10-22T04:48:20.750Z,19.67
2022-10-22T04:49:10.804Z,19.70
2022-10-22T04:50:01.831Z,19.95
2022-10-22T04:50:51.277Z,20.42
2022-10-22T04:51:42.191Z,19.08
2022-10-22T04:52:32.983Z,18.98
2022-10-22T04:54:14.956Z,21.55
2022-10-22T04:55:05.089Z,17.58
2022-10-22T04:55:53.379Z,18.55
2022-10-22T04:56:43.279Z,20.12
2022-10-22T04:57:32.910Z,19.37
2022-10-22T04:58:23.417Z,19.30
2022-10-22T04:59:15.332Z,20.88
2022-10-22T05:00:05.923Z,17.90
2022-10-22T05:00:55.952Z,21.33
2022-10-22T05:01:46.473Z,24.08
2022-10-22T05:02:35.271Z,24.05
2022-10-22T05:03:28.904Z,20.40
2022-10-22T05:04:21.920Z,22.65
2022-10-22T05:05:14.458Z,18.70
2022-10-22T05:06:05.260Z,19.30
2022-10-22T05:06:54.331Z,18.27
2022-10-22T05:07:45.901Z,20.15
2022-10-22T05:08:36.634Z,18.00
2022-10-22T05:09:24.750Z,17.05
2022-10-22T05:10:13.770Z,18.65
2022-10-22T05:11:11.938Z,20.65
2022-10-22T05:12:02.603Z,18.37
2022-10-22T05:12:54.092Z,21.50
2022-10-22T05:13:48.878Z,19.67
2022-10-22T05:14:42.561Z,19.45
2022-10-22T05:15:37.316Z,19.30
2022-10-22T05:16:28.771Z,19.35
2022-10-22T05:17:19.761Z,17.70
2022-10-22T05:19:02.410Z,17.55
2022-10-22T05:19:53.930Z,22.62
2022-10-22T05:20:45.709Z,17.65
2022-10-22T05:21:36.081Z,18.45
2022-10-22T05:22:25.544Z,17.92
2022-10-22T05:23:14.991Z,23.33
2022-10-22T05:24:05.840Z,18.17
2022-10-22T05:24:58.351Z,19.42
2022-10-22T05:25:47.031Z,18.85
2022-10-22T05:26:39.334Z,20.23
2022-10-22T05:27:29.842Z,20.80
2022-10-22T05:28:21.037Z,18.90
2022-10-22T05:29:12.110Z,23.17
2022-10-22T05:30:02.756Z,15.95
2022-10-22T05:31:00.050Z,17.08
2022-10-22T05:31:52.843Z,18.65
2022-10-22T05:32:43.199Z,18.15
2022-10-22T05:33:34.931Z,19.30
2022-10-22T05:34:24.791Z,18.10
2022-10-22T05:35:14.408Z,17.12
2022-10-22T05:36:05.831Z,17.23
2022-10-22T05:36:56.839Z,18.12
2022-10-22T05:37:48.816Z,22.23
2022-10-22T05:38:39.780Z,18.15
2022-10-22T05:39:30.611Z,18.60
2022-10-22T05:40:30.391Z,17.08
2022-10-22T05:41:26.952Z,18.90
2022-10-22T05:42:17.719Z,17.20
2022-10-22T05:43:07.360Z,20.37
2022-10-22T05:43:59.406Z,16.60
2022-10-22T05:44:52.803Z,20.58
2022-10-22T05:45:47.445Z,18.30
2022-10-22T05:46:38.770Z,18.67
2022-10-22T05:47:32.720Z,19.83
2022-10-22T05:48:23.667Z,16.15
2022-10-22T05:50:07.115Z,20.62
2022-10-22T05:50:58.053Z,16.73
2022-10-22T05:51:52.191Z,18.02
2022-10-22T05:52:42.949Z,20.23
2022-10-22T05:53:36.190Z,17.42
2022-10-22T05:54:27.842Z,19.25
2022-10-22T05:55:17.989Z,16.92
2022-10-22T05:56:14.320Z,18.00
2022-10-22T05:57:03.542Z,19.77
2022-10-22T05:57:53.053Z,17.83
2022-10-22T05:58:45.999Z,19.12
2022-10-22T05:59:37.450Z,18.55
2022-10-22T06:00:27.650Z,18.23
2022-10-22T06:01:26.365Z,18.35
2022-10-22T06:02:18.955Z,18.00
2022-10-22T06:03:11.183Z,18.85
2022-10-22T06:04:05.930Z,22.45
2022-10-22T06:04:55.872Z,18.60
2022-10-22T06:05:44.321Z,17.17
2022-10-22T06:06:49.700Z,20.40
2022-10-22T06:07:40.201Z,19.02
2022-10-22T06:08:30.442Z,20.27
2022-10-22T06:10:15.443Z,18.50
2022-10-22T06:11:06.991Z,23.02
2022-10-22T06:11:58.829Z,19.70
2022-10-22T06:12:49.819Z,20.73
2022-10-22T06:13:40.978Z,22.80
2022-10-22T06:14:34.247Z,17.83
2022-10-22T06:15:26.641Z,20.15
2022-10-22T06:16:18.851Z,17.58
2022-10-22T06:17:10.499Z,19.77
2022-10-22T06:18:00.888Z,20.58
2022-10-22T06:18:53.040Z,24.35
2022-10-22T06:19:43.601Z,18.45
2022-10-22T06:20:32.670Z,19.95
2022-10-22T06:21:23.211Z,19.47
2022-10-22T06:22:15.311Z,17.73
2022-10-22T06:23:05.700Z,23.67
2022-10-22T06:23:59.860Z,19.98
2022-10-22T06:24:49.311Z,19.08
2022-10-22T06:25:39.809Z,19.35
2022-10-22T06:27:20.921Z,19.65
2022-10-22T06:28:10.093Z,18.58
2022-10-22T06:28:59.641Z,18.12
2022-10-22T06:29:50.709Z,20.35
2022-10-22T06:30:43.054Z,17.37
2022-10-22T06:31:38.231Z,19.35
2022-10-22T06:32:30.221Z,18.98
2022-10-22T06:33:21.490Z,18.27
2022-10-22T06:34:14.431Z,20.12
2022-10-22T06:35:05.758Z,19.65
2022-10-22T06:35:56.382Z,20.73
2022-10-22T06:36:48.098Z,19.75
2022-10-22T06:37:39.453Z,20.17
2022-10-22T06:38:30.990Z,22.35
2022-10-22T06:39:22.931Z,20.92
2022-10-22T06:40:12.913Z,20.48
2022-10-22T06:41:11.361Z,23.83
2022-10-22T06:42:01.682Z,20.30
2022-10-22T06:42:52.823Z,20.73
2022-10-22T06:43:44.582Z,20.75
2022-10-22T06:44:35.656Z,29.40
2022-10-22T06:45:24.970Z,29.48
2022-10-22T06:46:19.859Z,21.65
2022-10-22T06:47:11.201Z,25.40
2022-10-22T06:48:02.773Z,26.15
2022-10-22T06:48:59.222Z,29.80
2022-10-22T06:49:49.998Z,21.92
2022-10-22T06:50:41.427Z,22.23
2022-10-22T06:51:32.690Z,27.92
2022-10-22T06:52:22.461Z,23.23
2022-10-22T06:53:12.880Z,24.73
2022-10-22T06:54:03.720Z,26.80
2022-10-22T06:55:43.311Z,20.70
2022-10-22T06:56:32.948Z,20.88
2022-10-22T06:57:25.802Z,21.25
2022-10-22T06:58:16.883Z,22.85
2022-10-22T06:59:09.536Z,20.60
2022-10-22T07:00:02.671Z,20.12
2022-10-22T07:01:04.013Z,19.35
2022-10-22T07:01:52.788Z,23.35
2022-10-22T07:02:44.029Z,18.87
2022-10-22T07:03:43.925Z,18.90
2022-10-22T07:04:34.659Z,22.20
2022-10-22T07:05:24.792Z,21.08
2022-10-22T07:06:17.600Z,23.25
2022-10-22T07:07:09.491Z,21.35
2022-10-22T07:08:00.959Z,20.30
2022-10-22T07:08:50.988Z,20.45
2022-10-22T07:09:42.432Z,18.92
2022-10-22T07:10:32.024Z,18.17
2022-10-22T07:11:28.844Z,23.67
2022-10-22T07:12:22.328Z,16.98
2022-10-22T07:13:12.582Z,22.77
2022-10-22T07:14:03.231Z,16.62
2022-10-22T07:14:54.368Z,15.07
2022-10-22T07:15:45.241Z,17.90
2022-10-22T07:16:35.106Z,16.42
2022-10-22T07:17:25.270Z,15.95
2022-10-22T07:18:14.908Z,16.08
2022-10-22T07:19:12.002Z,14.87
2022-10-22T07:20:02.094Z,17.65
2022-10-22T07:20:59.869Z,18.37
2022-10-22T07:21:52.982Z,20.88
2022-10-22T07:22:44.077Z,16.02
2022-10-22T07:23:36.444Z,17.85
2022-10-22T07:24:28.001Z,20.02
2022-10-22T07:25:19.660Z,20.73
2022-10-22T07:26:12.799Z,19.35
2022-10-22T07:27:01.565Z,20.60
2022-10-22T07:27:51.976Z,17.73
2022-10-22T07:28:41.715Z,19.17
2022-10-22T07:29:30.952Z,23.00
2022-10-22T07:30:20.261Z,30.50
2022-10-22T07:31:11.840Z,29.70
2022-10-22T07:32:02.229Z,24.40
2022-10-22T07:32:52.590Z,24.33
2022-10-22T07:33:43.708Z,27.92
2022-10-22T07:34:31.931Z,27.23
2022-10-22T07:35:23.197Z,27.42
2022-10-22T07:36:19.834Z,24.80
2022-10-22T07:37:09.400Z,22.87
2022-10-22T07:38:01.548Z,18.48
2022-10-22T07:38:56.733Z,18.92
2022-10-22T07:39:48.061Z,17.40
2022-10-22T07:40:39.161Z,13.55
2022-10-22T07:41:31.232Z,13.27
2022-10-22T07:42:21.898Z,12.55
2022-10-22T07:43:12.560Z,14.50
2022-10-22T07:44:03.228Z,12.57
2022-10-22T07:44:54.116Z,12.13
2022-10-22T07:45:44.289Z,11.88
2022-10-22T07:46:36.197Z,12.73
2022-10-22T07:47:27.975Z,10.77
2022-10-22T07:48:17.281Z,14.60
2022-10-22T07:49:07.713Z,12.60
2022-10-22T07:49:58.536Z,13.95
2022-10-22T07:50:50.533Z,12.52
2022-10-22T07:51:41.600Z,12.27
2022-10-22T07:52:31.751Z,12.80
2022-10-22T07:53:26.519Z,12.40
2022-10-22T07:54:18.138Z,13.73
2022-10-22T07:55:08.890Z,18.62
2022-10-22T07:56:02.768Z,12.65
2022-10-22T07:56:53.602Z,13.00
2022-10-22T07:58:34.593Z,14.25
2022-10-22T07:59:27.892Z,11.90
2022-10-22T08:00:21.706Z,11.85
2022-10-22T08:01:16.155Z,11.00
2022-10-22T08:02:05.621Z,16.65
2022-10-22T08:02:54.853Z,12.70
2022-10-22T08:03:49.473Z,13.70
2022-10-22T08:04:52.921Z,13.88
2022-10-22T08:05:46.349Z,14.57
2022-10-22T08:06:44.449Z,15.63
2022-10-22T08:07:45.391Z,14.52
2022-10-22T08:08:38.541Z,14.57
2022-10-22T08:09:28.466Z,13.98
2022-10-22T08:10:19.572Z,13.55
2022-10-22T08:11:10.776Z,14.15
2022-10-22T08:11:59.786Z,15.63
2022-10-22T08:12:49.439Z,14.23
2022-10-22T08:13:45.609Z,11.90
2022-10-22T08:14:36.781Z,13.10
2022-10-22T08:29:55.611Z,8.95
2022-10-22T08:30:43.032Z,11.60
2022-10-22T08:31:33.482Z,10.73
2022-10-22T08:32:23.158Z,11.02
2022-10-22T08:33:10.633Z,12.93
2022-10-22T08:34:01.115Z,16.02
2022-10-22T08:35:35.544Z,10.52
2022-10-22T08:36:22.521Z,10.98
2022-10-22T08:37:10.843Z,12.00
2022-10-22T08:37:59.249Z,11.77
2022-10-22T08:38:46.129Z,12.70
2022-10-22T08:39:32.965Z,10.05
2022-10-22T08:40:39.159Z,16.55
2022-10-22T08:41:27.467Z,13.40
2022-10-22T08:42:36.075Z,18.67
2022-10-22T08:43:57.050Z,17.77
2022-10-22T08:44:43.799Z,20.00
2022-10-22T08:45:40.731Z,22.17
2022-10-22T08:46:52.828Z,21.02
2022-10-22T08:48:09.652Z,21.37
2022-10-22T08:49:06.391Z,22.10
2022-10-22T08:49:54.545Z,23.95
2022-10-22T08:50:46.056Z,20.70
2022-10-22T08:51:40.650Z,26.42
2022-10-22T08:55:09.986Z,22.55
2022-10-22T08:55:57.296Z,23.58
2022-10-22T08:56:49.919Z,22.37
2022-10-22T08:57:52.997Z,27.23
2022-10-22T08:59:04.665Z,24.10
2022-10-22T09:00:03.266Z,24.37
2022-10-22T09:00:59.678Z,23.83
2022-10-22T09:01:48.553Z,25.25
2022-10-22T09:03:06.529Z,26.70
2022-10-22T09:04:13.287Z,25.70
2022-10-22T09:05:12.326Z,23.92
2022-10-22T09:06:15.782Z,25.90
2022-10-22T09:07:02.819Z,29.80
2022-10-22T09:07:50.664Z,21.42
2022-10-22T09:08:38.568Z,22.60
2022-10-22T09:09:29.881Z,25.40
2022-10-22T09:10:18.981Z,23.33
2022-10-22T09:11:11.503Z,26.05
2022-10-22T09:12:00.134Z,25.83
2022-10-22T09:12:48.600Z,32.22
2022-10-22T09:13:35.522Z,26.27
2022-10-22T09:14:24.664Z,26.70
2022-10-22T09:15:16.537Z,25.83
2022-10-22T09:16:45.063Z,21.40
2022-10-22T09:17:53.707Z,23.98
2022-10-22T09:18:59.911Z,30.40
2022-10-22T09:20:37.905Z,24.42
2022-10-22T09:21:27.625Z,21.45
2022-10-22T09:22:48.588Z,22.23
2022-10-22T09:24:05.191Z,24.42
2022-10-22T09:25:22.466Z,27.85
2022-10-22T09:26:17.665Z,26.00
2022-10-22T09:27:33.086Z,22.77
2022-10-22T09:28:21.608Z,20.40
2022-10-22T09:29:20.550Z,20.77
2022-10-22T09:30:22.329Z,21.80
2022-10-22T09:32:04.540Z,23.52
2022-10-22T09:33:42.030Z,21.35
2022-10-22T09:34:29.249Z,20.92
2022-10-22T09:35:22.859Z,21.25
2022-10-22T09:36:18.032Z,23.70
2022-10-22T09:37:09.507Z,24.58
2022-10-22T09:37:57.129Z,24.67
2022-10-22T09:38:51.114Z,25.88
2022-10-22T09:39:45.624Z,26.65
2022-10-22T09:40:32.469Z,23.17
2022-10-22T09:41:20.660Z,26.12
2022-10-22T09:42:08.452Z,27.83
2022-10-22T09:42:55.298Z,24.40
2022-10-22T09:43:42.185Z,26.12
2022-10-22T09:44:29.461Z,28.52
2022-10-22T09:45:22.629Z,26.12
2022-10-22T09:46:17.372Z,24.87
2022-10-22T09:47:05.938Z,24.65
2022-10-22T09:48:31.462Z,24.02
2022-10-22T09:49:31.049Z,30.00
2022-10-22T09:50:44.500Z,22.25
2022-10-22T09:51:47.611Z,22.13
2022-10-22T09:52:34.869Z,23.70
2022-10-22T09:53:31.102Z,25.73
2022-10-22T09:54:42.014Z,22.23
2022-10-22T09:55:29.492Z,21.40
2022-10-22T09:56:24.309Z,27.33
2022-10-22T09:57:21.751Z,24.87
2022-10-22T09:58:11.796Z,25.60
2022-10-22T09:58:58.929Z,20.95
2022-10-22T09:59:49.112Z,25.05
2022-10-22T10:00:39.694Z,25.45
2022-10-22T10:02:37.414Z,33.78
2022-10-22T10:03:28.043Z,30.40
2022-10-22T10:04:16.210Z,26.07
2022-10-22T10:05:05.017Z,23.62
2022-10-22T10:06:01.397Z,24.67
2022-10-22T10:06:56.499Z,23.25
2022-10-22T10:07:44.366Z,26.95
2022-10-22T10:08:31.822Z,24.63
2022-10-22T10:09:25.128Z,34.90
2022-10-22T10:10:20.477Z,28.23
2022-10-22T10:11:13.210Z,27.10
2022-10-22T10:12:05.672Z,34.22
2022-10-22T10:12:58.808Z,34.80
2022-10-22T10:13:46.942Z,34.17
2022-10-22T10:14:58.689Z,32.35
2022-10-22T10:15:57.388Z,25.65
2022-10-22T10:17:08.645Z,26.80
2022-10-22T10:18:12.877Z,23.80
2022-10-22T10:19:08.614Z,27.67
2022-10-22T10:20:04.503Z,33.20
2022-10-22T10:22:12.626Z,27.87
2022-10-22T10:23:30.008Z,29.15
2022-10-22T10:24:46.037Z,25.33
2022-10-22T10:25:38.191Z,27.98
2022-10-22T10:26:32.155Z,28.62
2022-10-22T10:27:34.055Z,26.95
2022-10-22T10:28:23.717Z,26.17
2022-10-22T10:29:16.469Z,29.48
2022-10-22T10:30:09.521Z,23.75
2022-10-22T10:31:21.839Z,27.33
2022-10-22T10:32:08.767Z,24.30
2022-10-22T10:32:55.660Z,26.98
2022-10-22T10:33:51.470Z,22.10
2022-10-22T10:34:49.174Z,26.65
2022-10-22T10:35:57.086Z,28.00
2022-10-22T10:37:04.681Z,27.25
2022-10-22T10:37:59.327Z,27.75
2022-10-22T10:38:56.990Z,24.12
2022-10-22T10:39:44.060Z,27.35
2022-10-22T10:40:41.459Z,24.92
2022-10-22T10:41:34.055Z,23.95
2022-10-22T10:42:26.893Z,22.60
2022-10-22T10:43:33.919Z,29.30
2022-10-22T10:44:27.777Z,32.83
2022-10-22T10:45:47.368Z,24.33
2022-10-22T10:46:52.046Z,26.92
2022-10-22T10:47:53.790Z,23.77
2022-10-22T10:48:53.571Z,24.30
2022-10-22T10:49:42.155Z,23.42
2022-10-22T10:51:05.696Z,21.15
2022-10-22T10:52:00.677Z,20.88
2022-10-22T10:53:22.370Z,20.70
2022-10-22T10:54:33.601Z,19.75
2022-10-22T10:56:13.471Z,22.42
2022-10-22T10:57:37.953Z,22.92
2022-10-22T10:58:38.611Z,22.17
2022-10-22T11:00:04.596Z,20.05
2022-10-22T11:00:58.122Z,23.05
2022-10-22T11:02:09.677Z,24.48
2022-10-22T11:03:15.571Z,22.75
2022-10-22T11:04:30.357Z,20.37
2022-10-22T11:05:39.891Z,20.15
2022-10-22T11:06:28.048Z,24.60
2022-10-22T11:07:33.541Z,23.02
2022-10-22T11:08:22.071Z,22.37
2022-10-22T11:09:34.931Z,20.52
2022-10-22T11:11:00.843Z,19.73
2022-10-22T11:11:50.783Z,18.92
2022-10-22T11:12:41.893Z,21.33
2022-10-22T11:14:26.526Z,26.73
2022-10-22T11:17:17.757Z,21.40
2022-10-22T11:18:18.390Z,21.17
2022-10-22T11:19:49.636Z,21.35
2022-10-22T11:20:44.058Z,17.85
2022-10-22T11:21:37.059Z,23.50
2022-10-22T11:22:30.536Z,20.50
2022-10-22T11:23:56.313Z,19.37
2022-10-22T11:25:03.677Z,20.55
2022-10-22T11:25:51.098Z,21.95
2022-10-22T11:26:52.074Z,19.58
2022-10-22T11:27:49.373Z,20.73
2022-10-22T11:28:41.753Z,18.48
2022-10-22T11:29:34.195Z,17.42
2022-10-22T11:30:23.144Z,20.23
2022-10-22T11:31:19.080Z,18.10
2022-10-22T11:32:07.453Z,21.45
2022-10-22T11:32:57.477Z,21.10
2022-10-22T11:34:32.630Z,19.27
2022-10-22T11:35:26.726Z,20.12
2022-10-22T11:36:14.164Z,25.75
2022-10-22T11:37:01.917Z,17.83
2022-10-22T11:37:49.195Z,19.30
2022-10-22T11:38:36.996Z,18.35
2022-10-22T11:39:35.399Z,18.77
2022-10-22T11:40:40.259Z,21.50
2022-10-22T11:41:30.916Z,19.75
2022-10-22T11:43:13.479Z,20.35
2022-10-22T11:44:13.077Z,21.02
2022-10-22T11:45:01.225Z,20.05
2022-10-22T11:45:50.769Z,18.08
2022-10-22T11:46:40.354Z,17.85
2022-10-22T11:47:30.210Z,20.25
2022-10-22T11:48:19.518Z,20.35
2022-10-22T11:49:18.522Z,19.30
2022-10-22T11:50:25.926Z,19.20
2022-10-22T11:51:37.297Z,17.40
2022-10-22T11:52:26.486Z,21.80
2022-10-22T11:53:15.211Z,18.23
2022-10-22T11:54:25.413Z,16.60
2022-10-22T11:55:49.596Z,19.05
2022-10-22T11:56:40.479Z,23.58
2022-10-22T11:58:34.216Z,21.15
2022-10-22T12:00:00.157Z,19.83